Time;durP1;ratioP1;P1;durP2;ratioP2;P2;SDS_P1;SDS_P2;PMS_P1;PMS_P2;Temp;Humidity;BMP_temperature;BMP_pressure;BME280_temperature;BME280_humidity;BME280_pressure;Samples;Min_cycle;Max_cycle;Signal;HPM_P1;HPM_P2
2024/02/16 00:01:52;;;;;;;;;;;;;;;18.09;64.11;101696.19;7390795;19;1789;-34
2024/02/16 00:04:20;;;;;;;;;;;;;;;18.15;64.07;101687.72;7382971;19;1309;-36
2024/02/16 00:06:49;;;;;;;;;;;;;;;18.16;64.07;101685.88;7391546;19;1850;-39
2024/02/16 00:09:17;;;;;;;;;;;;;;;18.07;64.17;101685.56;7395290;19;1028;-34
2024/02/16 00:11:47;;;;;;;;;;;;;;;18.02;64.40;101677.00;7393396;19;1415;-34
2024/02/16 00:14:15;;;;;;;;;;;;;;;18.05;64.16;101678.63;7394256;19;1482;-33
2024/02/16 00:16:46;;;;;;;;;;;;;;;18.03;64.32;101675.19;7393497;19;1766;-33
2024/02/16 00:19:14;;;;;;;;;;;;;;;17.96;64.61;101681.94;7391615;19;928;-32
2024/02/16 00:21:43;;;;;;;;;;;;;;;18.01;64.62;101694.03;7394058;19;1484;-39
2024/02/16 00:24:12;;;;;;;;;;;;;;;18.04;64.27;101682.25;7392786;19;1150;-35
2024/02/16 00:26:43;;;;;;;;;;;;;;;17.96;64.61;101684.59;7389970;19;1884;-33
2024/02/16 00:29:11;;;;;;;;;;;;;;;17.88;64.76;101679.78;7389677;19;1752;-34
2024/02/16 00:31:39;;;;;;;;;;;;;;;17.91;64.71;101684.09;7390404;19;2185;-34
2024/02/16 00:34:10;;;;;;;;;;;;;;;17.90;64.50;101685.88;7392613;19;1519;-34
2024/02/16 00:36:38;;;;;;;;;;;;;;;17.96;64.73;101693.47;7391795;19;1301;-34
2024/02/16 00:39:07;;;;;;;;;;;;;;;18.11;64.52;101685.38;7391567;19;1595;-39
2024/02/16 00:41:35;;;;;;;;;;;;;;;18.20;63.94;101671.31;7392316;19;1012;-33
2024/02/16 00:44:03;;;;;;;;;;;;;;;18.21;64.00;101681.94;7391712;19;1836;-33
2024/02/16 00:46:32;;;;;;;;;;;;;;;18.19;63.85;101689.22;7390162;19;1831;-35
2024/02/16 00:49:00;;;;;;;;;;;;;;;18.18;63.87;101686.63;7390917;19;1340;-34
2024/02/16 00:51:31;;;;;;;;;;;;;;;18.14;64.13;101691.34;7389717;19;1740;-35
2024/02/16 00:54:00;;;;;;;;;;;;;;;18.10;64.15;101671.09;7389337;19;1455;-39
2024/02/16 00:56:28;;;;;;;;;;;;;;;18.06;64.16;101680.31;7389038;19;1390;-39
2024/02/16 00:58:56;;;;;;;;;;;;;;;18.02;64.25;101684.19;7388790;19;1499;-39
2024/02/16 01:01:26;;;;;;;;;;;;;;;17.92;64.40;101680.44;7391525;19;1840;-39
2024/02/16 01:03:54;;;;;;;;;;;;;;;17.93;64.55;101679.47;7392780;19;1614;-34
2024/02/16 01:06:23;;;;;;;;;;;;;;;17.87;64.82;101684.28;7376816;19;1856;-34
2024/02/16 01:08:54;;;;;;;;;;;;;;;17.92;64.78;101681.28;7392597;19;1094;-35
2024/02/16 01:11:22;;;;;;;;;;;;;;;17.93;64.57;101674.13;7390775;19;1451;-36
2024/02/16 01:13:50;;;;;;;;;;;;;;;17.89;64.53;101678.84;7389383;19;1836;-34
2024/02/16 01:16:19;;;;;;;;;;;;;;;17.88;64.52;101663.72;7392704;19;1231;-34
2024/02/16 01:18:48;;;;;;;;;;;;;;;18.14;64.24;101680.63;7391305;19;1840;-34
2024/02/16 01:21:16;;;;;;;;;;;;;;;18.25;63.67;101672.72;7391036;19;1476;-34
2024/02/16 01:23:44;;;;;;;;;;;;;;;18.20;63.82;101668.66;7390555;19;1444;-34
2024/02/16 01:26:15;;;;;;;;;;;;;;;18.19;63.95;101672.31;7389891;19;1856;-35
2024/02/16 01:28:44;;;;;;;;;;;;;;;18.13;63.76;101670.91;7389965;19;1619;-34
2024/02/16 01:31:12;;;;;;;;;;;;;;;18.07;64.03;101674.88;7389917;19;1583;-34
2024/02/16 01:33:41;;;;;;;;;;;;;;;18.07;64.01;101663.31;7389200;19;1436;-34
2024/02/16 01:36:10;;;;;;;;;;;;;;;17.96;64.32;101660.53;7390622;19;1570;-35
2024/02/16 01:38:38;;;;;;;;;;;;;;;17.97;64.43;101672.94;7391241;19;1396;-34
2024/02/16 01:41:07;;;;;;;;;;;;;;;17.89;64.46;101663.63;7390322;19;1030;-41
2024/02/16 01:43:38;;;;;;;;;;;;;;;17.84;64.62;101663.06;7387926;19;1785;-41
2024/02/16 01:46:07;;;;;;;;;;;;;;;17.84;64.81;101668.41;7388501;19;1891;-35
2024/02/16 01:48:35;;;;;;;;;;;;;;;17.79;65.01;101665.19;7390039;19;1015;-35
2024/02/16 01:51:04;;;;;;;;;;;;;;;17.85;64.72;101653.25;7387925;19;1486;-34
2024/02/16 01:53:33;;;;;;;;;;;;;;;17.82;64.56;101664.97;7389984;19;1749;-34
2024/02/16 01:56:02;;;;;;;;;;;;;;;17.85;64.71;101667.47;7390245;19;1661;-35
2024/02/16 01:58:31;;;;;;;;;;;;;;;18.05;64.26;101659.88;7389300;19;1729;-34
2024/02/16 02:01:02;;;;;;;;;;;;;;;18.19;63.81;101657.09;7388719;19;1669;-34
2024/02/16 02:03:31;;;;;;;;;;;;;;;18.11;63.98;101656.78;7389758;19;1337;-40
2024/02/16 02:05:59;;;;;;;;;;;;;;;18.10;63.86;101652.38;7372630;19;1891;-34
2024/02/16 02:08:28;;;;;;;;;;;;;;;18.11;64.03;101654.09;7389862;19;1523;-39
2024/02/16 02:10:56;;;;;;;;;;;;;;;17.97;64.23;101657.75;7390539;19;1001;-40
2024/02/16 02:13:25;;;;;;;;;;;;;;;17.94;64.41;101657.94;7388375;19;1598;-34
2024/02/16 02:15:53;;;;;;;;;;;;;;;18.00;64.38;101662.00;7389578;19;1055;-39
2024/02/16 02:18:24;;;;;;;;;;;;;;;17.98;64.51;101663.94;7388904;19;1448;-40
2024/02/16 02:20:53;;;;;;;;;;;;;;;17.87;64.53;101654.84;7389500;19;1760;-34
2024/02/16 02:23:24;;;;;;;;;;;;;;;17.85;64.60;101646.06;7387994;19;1673;-39
2024/02/16 02:25:52;;;;;;;;;;;;;;;17.84;64.32;101652.38;7388365;19;1882;-39
2024/02/16 02:28:23;;;;;;;;;;;;;;;17.71;64.84;101662.19;7386610;19;1209;-39
2024/02/16 02:30:53;;;;;;;;;;;;;;;17.76;64.76;101649.34;7384858;19;1482;-35
2024/02/16 02:33:19;;;;;;;;;;;;;;;17.93;64.50;101658.06;7388978;19;1550;-34
2024/02/16 02:35:48;;;;;;;;;;;;;;;18.13;63.95;101662.88;7389281;19;1753;-39
2024/02/16 02:38:16;;;;;;;;;;;;;;;18.12;63.93;101666.50;7387814;19;1542;-34
2024/02/16 02:40:47;;;;;;;;;;;;;;;18.06;63.84;101661.59;7389521;19;1063;-34
2024/02/16 02:43:18;;;;;;;;;;;;;;;18.04;63.96;101663.50;7385552;19;1851;-39
2024/02/16 02:45:46;;;;;;;;;;;;;;;17.97;64.31;101663.09;7388581;19;1865;-34
2024/02/16 02:48:15;;;;;;;;;;;;;;;17.98;64.21;101669.28;7388976;19;1478;-35
2024/02/16 02:50:43;;;;;;;;;;;;;;;17.93;64.32;101668.78;7387401;19;1823;-36
2024/02/16 02:53:11;;;;;;;;;;;;;;;17.95;64.21;101664.19;7387553;19;1570;-35
2024/02/16 02:55:39;;;;;;;;;;;;;;;17.76;64.62;101669.91;7389507;19;1119;-39
2024/02/16 02:58:10;;;;;;;;;;;;;;;17.82;64.50;101664.97;7389489;19;1030;-40
2024/02/16 03:00:39;;;;;;;;;;;;;;;17.79;64.40;101659.84;7389898;19;1914;-40
2024/02/16 03:03:07;;;;;;;;;;;;;;;17.78;64.77;101659.94;7388702;19;1843;-33
2024/02/16 03:05:35;;;;;;;;;;;;;;;17.72;64.83;101671.91;7374009;19;1260;-32
2024/02/16 03:08:04;;;;;;;;;;;;;;;17.85;64.53;101667.47;7387219;19;1854;-32
2024/02/16 03:10:34;;;;;;;;;;;;;;;18.13;64.15;101678.94;7387836;19;1607;-32
2024/02/16 03:13:03;;;;;;;;;;;;;;;18.10;63.88;101673.78;7386945;19;1403;-31
2024/02/16 03:15:35;;;;;;;;;;;;;;;18.07;64.14;101679.38;7388740;19;1028;-34
2024/02/16 03:18:04;;;;;;;;;;;;;;;18.05;64.14;101666.09;7385619;19;1765;-34
2024/02/16 03:20:32;;;;;;;;;;;;;;;17.92;64.54;101667.91;7387078;19;1602;-38
2024/02/16 03:23:01;;;;;;;;;;;;;;;17.98;64.30;101674.66;7385526;19;1709;-39
2024/02/16 03:25:29;;;;;;;;;;;;;;;17.91;64.24;101668.03;7386111;19;1601;-39
2024/02/16 03:27:58;;;;;;;;;;;;;;;17.87;64.67;101689.63;7385734;19;1853;-34
2024/02/16 03:30:27;;;;;;;;;;;;;;;17.86;64.60;101684.38;7387147;19;1516;-38
2024/02/16 03:32:58;;;;;;;;;;;;;;;17.82;64.71;101704.25;7387117;19;1337;-34
2024/02/16 03:35:27;;;;;;;;;;;;;;;17.70;65.07;101684.53;7387815;19;1468;-35
2024/02/16 03:37:55;;;;;;;;;;;;;;;17.67;65.05;101684.75;7387786;19;1028;-35
2024/02/16 03:40:25;;;;;;;;;;;;;;;17.73;65.13;101719.13;7387765;19;1844;-34
2024/02/16 03:42:54;;;;;;;;;;;;;;;17.92;64.85;101691.13;7383559;19;1847;-35
2024/02/16 03:45:23;;;;;;;;;;;;;;;18.16;63.99;101678.72;7385867;19;1468;-34
2024/02/16 03:47:52;;;;;;;;;;;;;;;18.06;64.31;101689.22;7385252;19;1842;-35
2024/02/16 03:50:23;;;;;;;;;;;;;;;18.02;64.27;101709.13;7386478;19;2526;-35
2024/02/16 03:52:51;;;;;;;;;;;;;;;17.98;64.52;101691.56;7386915;19;1099;-38
2024/02/16 03:55:20;;;;;;;;;;;;;;;17.96;64.55;101704.19;7386619;19;1812;-35
2024/02/16 03:57:48;;;;;;;;;;;;;;;17.93;64.48;101692.88;7386038;19;1607;-34
2024/02/16 04:00:17;;;;;;;;;;;;;;;17.85;64.79;101704.09;7383292;19;1733;-34
2024/02/16 04:02:45;;;;;;;;;;;;;;;17.89;64.87;101701.09;7386477;19;1233;-34
2024/02/16 04:05:13;;;;;;;;;;;;;;;18.50;63.15;101703.09;7379119;19;1449;-34
2024/02/16 04:07:44;;;;;;;;;;;;;;;18.62;62.61;101694.22;7380903;19;1884;-34
2024/02/16 04:10:12;;;;;;;;;;;;;;;18.67;62.84;101701.91;7386274;19;1736;-34
2024/02/16 04:12:41;;;;;;;;;;;;;;;18.52;63.25;101711.03;7384226;19;1237;-34
2024/02/16 04:15:09;;;;;;;;;;;;;;;18.37;63.35;101721.03;7385901;19;1031;-39
2024/02/16 04:17:38;;;;;;;;;;;;;;;18.19;64.00;101709.78;7382610;19;1457;-38
2024/02/16 04:20:07;;;;;;;;;;;;;;;18.25;64.00;101710.19;7386163;19;1764;-39
2024/02/16 04:22:37;;;;;;;;;;;;;;;18.48;63.41;101713.06;7385518;19;1622;-39
2024/02/16 04:25:08;;;;;;;;;;;;;;;18.44;63.54;101706.22;7385794;19;1740;-34
2024/02/16 04:27:37;;;;;;;;;;;;;;;18.29;63.71;101702.81;7382449;19;1833;-35
2024/02/16 04:30:06;;;;;;;;;;;;;;;18.23;63.94;101711.28;7392557;19;1757;-34
2024/02/16 04:32:34;;;;;;;;;;;;;;;18.24;63.84;101715.66;7394515;19;1037;-34
2024/02/16 04:35:04;;;;;;;;;;;;;;;18.39;63.79;101717.25;7393218;19;1884;-34
2024/02/16 04:37:32;;;;;;;;;;;;;;;18.54;63.11;101714.44;7391779;19;2369;-33
2024/02/16 04:40:00;;;;;;;;;;;;;;;18.45;63.59;101721.34;7392696;19;1761;-33
2024/02/16 04:42:31;;;;;;;;;;;;;;;18.26;63.79;101717.28;7393139;19;1690;-35
2024/02/16 04:45:00;;;;;;;;;;;;;;;18.22;63.76;101726.50;7392703;19;1003;-34
2024/02/16 04:47:28;;;;;;;;;;;;;;;18.29;63.78;101717.06;7392909;19;1841;-34
2024/02/16 04:49:56;;;;;;;;;;;;;;;18.56;63.32;101716.09;7391501;19;1130;-34
2024/02/16 04:52:25;;;;;;;;;;;;;;;18.42;63.61;101719.75;7392145;19;1860;-34
2024/02/16 04:54:53;;;;;;;;;;;;;;;18.34;63.72;101727.44;7392548;19;1555;-33
2024/02/16 04:57:22;;;;;;;;;;;;;;;18.21;63.99;101716.72;7392368;19;1741;-34
2024/02/16 04:59:53;;;;;;;;;;;;;;;18.28;63.66;101720.72;7390292;19;1579;-32
2024/02/16 05:02:21;;;;;;;;;;;;;;;18.47;63.24;101728.28;7390983;19;1666;-39
2024/02/16 05:04:49;;;;;;;;;;;;;;;18.52;63.09;101729.78;7387730;19;1582;-34
2024/02/16 05:07:18;;;;;;;;;;;;;;;18.42;63.41;101716.19;7374440;19;1859;-39
2024/02/16 05:09:46;;;;;;;;;;;;;;;18.26;63.72;101744.06;7390853;19;1597;-34
2024/02/16 05:12:14;;;;;;;;;;;;;;;18.27;63.83;101744.91;7391160;19;1189;-35
2024/02/16 05:14:42;;;;;;;;;;;;;;;18.46;63.55;101742.66;7389218;19;1416;-32
2024/02/16 05:17:13;;;;;;;;;;;;;;;18.58;63.11;101738.25;7391214;19;1519;-34
2024/02/16 05:19:42;;;;;;;;;;;;;;;18.47;63.32;101736.31;7391012;19;1530;-35
2024/02/16 05:22:10;;;;;;;;;;;;;;;18.34;63.46;101732.78;7389872;19;1649;-34
2024/02/16 05:24:38;;;;;;;;;;;;;;;18.27;63.60;101744.91;7391298;19;1858;-33
2024/02/16 05:27:07;;;;;;;;;;;;;;;18.44;63.47;101738.34;7389969;19;1854;-38
2024/02/16 05:29:35;;;;;;;;;;;;;;;18.67;63.04;101739.41;7390021;19;1669;-35
2024/02/16 05:32:04;;;;;;;;;;;;;;;18.62;63.13;101758.50;7391199;19;1781;-39
2024/02/16 05:34:37;;;;;;;;;;;;;;;18.56;62.95;101756.25;7389769;19;1371;-34
2024/02/16 05:37:06;;;;;;;;;;;;;;;18.30;63.32;101750.03;7391411;19;1831;-34
2024/02/16 05:39:35;;;;;;;;;;;;;;;18.44;63.06;101747.25;7390034;19;1427;-34
2024/02/16 05:42:04;;;;;;;;;;;;;;;18.71;61.65;101722.16;7390804;19;1144;-34
2024/02/16 05:44:34;;;;;;;;;;;;;;;18.98;61.90;101762.22;7390047;19;1856;-34
2024/02/16 05:47:03;;;;;;;;;;;;;;;19.23;61.45;101781.88;7389084;19;1862;-33
2024/02/16 05:49:31;;;;;;;;;;;;;;;19.04;61.83;101761.78;7388837;19;1682;-33
2024/02/16 05:54:45;;;;;;;;;;;;;;;18.54;62.74;101781.41;7382091;19;1385;-34
2024/02/16 05:57:13;;;;;;;;;;;;;;;18.47;62.74;101767.63;7385141;19;1612;-34
2024/02/16 05:59:42;;;;;;;;;;;;;;;18.65;62.37;101771.66;7387101;19;1725;-40
2024/02/16 06:02:11;;;;;;;;;;;;;;;18.97;61.53;101768.53;7389364;19;1563;-34
2024/02/16 06:04:39;;;;;;;;;;;;;;;19.27;60.94;101780.69;7385974;19;1818;-36
2024/02/16 06:07:10;;;;;;;;;;;;;;;19.40;60.47;101786.00;7374256;19;1849;-33
2024/02/16 06:09:39;;;;;;;;;;;;;;;19.39;60.30;101785.13;7386109;19;1527;-34
2024/02/16 06:12:09;;;;;;;;;;;;;;;19.41;60.31;101795.75;7385022;19;1026;-34
2024/02/16 06:14:38;;;;;;;;;;;;;;;19.43;60.43;101785.75;7385329;19;1858;-35
2024/02/16 06:17:08;;;;;;;;;;;;;;;19.42;60.43;101784.06;7385212;19;1548;-34
2024/02/16 06:19:37;;;;;;;;;;;;;;;19.46;60.19;101799.81;7384107;19;1597;-34
2024/02/16 06:22:05;;;;;;;;;;;;;;;19.49;60.20;101801.41;7385275;19;1517;-34
2024/02/16 06:24:36;;;;;;;;;;;;;;;19.47;60.30;101806.03;7386474;19;948;-35
2024/02/16 06:27:05;;;;;;;;;;;;;;;19.50;60.24;101804.94;7385099;19;1866;-33
2024/02/16 06:29:33;;;;;;;;;;;;;;;19.63;59.67;101793.19;7384175;19;1593;-35
2024/02/16 06:32:02;;;;;;;;;;;;;;;19.44;58.56;101808.97;7388109;19;1843;-35
2024/02/16 06:34:30;;;;;;;;;;;;;;;19.28;58.26;101818.13;7387652;19;1398;-34
2024/02/16 06:36:58;;;;;;;;;;;;;;;19.25;57.26;101807.59;7386794;19;1494;-35
2024/02/16 06:39:26;;;;;;;;;;;;;;;19.43;57.29;101812.59;7381320;19;1717;-34
2024/02/16 06:41:57;;;;;;;;;;;;;;;19.45;55.84;101811.50;7386240;19;1316;-34
2024/02/16 06:44:26;;;;;;;;;;;;;;;19.22;56.33;101805.16;7383261;19;1516;-37
2024/02/16 06:46:54;;;;;;;;;;;;;;;19.20;55.87;101792.81;7385965;19;1447;-34
2024/02/16 06:49:22;;;;;;;;;;;;;;;18.81;56.15;101797.41;7380967;19;1884;-34
2024/02/16 06:51:50;;;;;;;;;;;;;;;18.47;56.43;101797.06;7359714;19;2050;-33
2024/02/16 06:54:19;;;;;;;;;;;;;;;18.33;57.58;101797.19;7380510;19;1168;-34
2024/02/16 06:56:47;;;;;;;;;;;;;;;18.46;57.38;101806.06;7383338;19;1480;-35
2024/02/16 06:59:18;;;;;;;;;;;;;;;18.88;56.68;101814.78;7386440;19;1589;-35
2024/02/16 07:01:46;;;;;;;;;;;;;;;18.99;56.57;101817.53;7384466;19;1570;-34
2024/02/16 07:04:15;;;;;;;;;;;;;;;19.14;56.30;101815.59;7383096;19;1597;-34
2024/02/16 07:06:43;;;;;;;;;;;;;;;19.33;56.07;101817.78;7370921;19;1761;-36
2024/02/16 07:09:14;;;;;;;;;;;;;;;19.36;56.14;101798.78;7382471;19;1830;-35
2024/02/16 07:11:42;;;;;;;;;;;;;;;19.31;56.10;101822.38;7372343;19;1304;-34
2024/02/16 07:14:10;;;;;;;;;;;;;;;19.28;56.43;101806.53;7384876;19;1518;-34
2024/02/16 07:16:41;;;;;;;;;;;;;;;19.27;56.56;101810.19;7384908;19;891;-35
2024/02/16 07:19:10;;;;;;;;;;;;;;;19.26;56.80;101811.16;7386658;19;1156;-34
2024/02/16 07:21:38;;;;;;;;;;;;;;;19.26;56.89;101817.38;7376810;19;1942;-34
2024/02/16 07:24:08;;;;;;;;;;;;;;;19.22;57.00;101813.19;7384384;19;1534;-39
2024/02/16 07:26:36;;;;;;;;;;;;;;;19.20;57.20;101807.09;7385434;19;1937;-39
2024/02/16 07:29:05;;;;;;;;;;;;;;;19.22;57.15;101804.31;7382574;19;1837;-39
2024/02/16 07:31:34;;;;;;;;;;;;;;;19.24;57.10;101810.41;7384824;19;1740;-39
2024/02/16 07:34:06;;;;;;;;;;;;;;;19.22;57.10;101815.03;7385796;19;1183;-40
2024/02/16 07:36:36;;;;;;;;;;;;;;;19.22;57.29;101802.47;7385347;19;1214;-39
2024/02/16 07:39:05;;;;;;;;;;;;;;;19.24;57.33;101813.09;7385892;19;1817;-39
2024/02/16 07:41:33;;;;;;;;;;;;;;;19.25;57.21;101814.78;7385465;19;1447;-34
2024/02/16 07:44:02;;;;;;;;;;;;;;;19.22;57.34;101807.00;7384515;19;1582;-35
2024/02/16 07:46:30;;;;;;;;;;;;;;;19.24;57.36;101840.75;7384939;19;1600;-34
2024/02/16 07:48:58;;;;;;;;;;;;;;;19.23;57.65;101831.00;7384303;19;1853;-34
2024/02/16 07:51:29;;;;;;;;;;;;;;;19.16;57.63;101818.13;7381120;19;1490;-33
2024/02/16 07:53:58;;;;;;;;;;;;;;;19.18;57.59;101821.56;7385849;19;1553;-34
2024/02/16 07:56:26;;;;;;;;;;;;;;;19.26;57.54;101835.28;7383869;19;1543;-34
2024/02/16 07:58:54;;;;;;;;;;;;;;;19.27;57.57;101842.34;7384340;19;1680;-34
2024/02/16 08:01:23;;;;;;;;;;;;;;;19.30;57.45;101841.28;7374445;19;2368;-34
2024/02/16 08:03:51;;;;;;;;;;;;;;;19.27;57.43;101839.69;7387912;19;1543;-34
2024/02/16 08:06:21;;;;;;;;;;;;;;;19.27;57.48;101840.53;7388206;19;1610;-39
2024/02/16 08:08:52;;;;;;;;;;;;;;;19.27;57.63;101840.53;7384083;19;1862;-40
2024/02/16 08:11:20;;;;;;;;;;;;;;;19.26;57.48;101841.50;7391045;19;1210;-34
2024/02/16 08:13:49;;;;;;;;;;;;;;;19.30;57.63;101844.84;7389609;19;1550;-34
2024/02/16 08:16:17;;;;;;;;;;;;;;;19.27;57.64;101843.19;7389223;19;1123;-34
2024/02/16 08:18:46;;;;;;;;;;;;;;;19.28;57.69;101849.44;7390478;19;1773;-34
2024/02/16 08:21:14;;;;;;;;;;;;;;;19.28;57.80;101849.44;7389122;19;1573;-35
2024/02/16 08:23:43;;;;;;;;;;;;;;;19.29;57.47;101837.75;7391515;19;1812;-34
2024/02/16 08:26:14;;;;;;;;;;;;;;;19.32;57.63;101863.47;7389328;19;1590;-34
2024/02/16 08:28:45;;;;;;;;;;;;;;;19.27;57.61;101847.72;7384948;19;1858;-35
2024/02/16 08:31:17;;;;;;;;;;;;;;;19.29;57.72;101883.31;7389709;19;1437;-36
2024/02/16 08:33:46;;;;;;;;;;;;;;;19.35;57.31;101850.69;7391782;19;1176;-35
2024/02/16 08:36:15;;;;;;;;;;;;;;;19.41;57.08;101850.25;7390219;19;1494;-35
2024/02/16 08:38:43;;;;;;;;;;;;;;;19.45;57.22;101856.25;7388530;19;1269;-36
2024/02/16 08:41:14;;;;;;;;;;;;;;;19.54;57.23;101860.13;7389530;19;1515;-35
2024/02/16 08:43:42;;;;;;;;;;;;;;;19.55;57.18;101859.13;7388595;19;1229;-36
2024/02/16 08:46:11;;;;;;;;;;;;;;;19.59;57.04;101852.56;7391050;19;1399;-34
2024/02/16 08:48:39;;;;;;;;;;;;;;;19.58;57.11;101857.09;7389308;19;1864;-36
2024/02/16 08:51:07;;;;;;;;;;;;;;;19.57;57.27;101844.63;7389993;19;1513;-41
2024/02/16 08:53:36;;;;;;;;;;;;;;;19.66;57.14;101848.47;7390839;19;1555;-40
2024/02/16 08:56:04;;;;;;;;;;;;;;;19.66;57.18;101849.31;7391174;19;1774;-40
2024/02/16 08:58:35;;;;;;;;;;;;;;;19.65;57.19;101854.78;7391724;19;1564;-40
2024/02/16 09:01:03;;;;;;;;;;;;;;;19.65;57.27;101850.28;7391385;19;1621;-35
2024/02/16 09:03:36;;;;;;;;;;;;;;;19.74;57.01;101856.84;7389754;19;1535;-35
2024/02/16 09:06:05;;;;;;;;;;;;;;;19.67;56.96;101853.69;7390445;19;1197;-40
2024/02/16 09:08:35;;;;;;;;;;;;;;;19.83;56.68;101866.88;7375453;19;1849;-41
2024/02/16 09:11:04;;;;;;;;;;;;;;;19.81;56.74;101862.59;7391880;19;1024;-39
2024/02/16 09:13:35;;;;;;;;;;;;;;;19.80;56.93;101860.91;7391945;19;1547;-39
2024/02/16 09:16:05;;;;;;;;;;;;;;;19.79;56.86;101859.16;7392404;19;1023;-40
2024/02/16 09:18:33;;;;;;;;;;;;;;;19.85;56.78;101856.03;7392933;19;1609;-39
2024/02/16 09:21:02;;;;;;;;;;;;;;;19.85;56.97;101848.81;7392590;19;1801;-39
2024/02/16 09:23:30;;;;;;;;;;;;;;;19.49;57.97;101849.69;7390350;19;1419;-36
2024/02/16 09:25:59;;;;;;;;;;;;;;;19.20;58.49;101862.53;7389313;19;1467;-35
2024/02/16 09:28:27;;;;;;;;;;;;;;;18.96;59.14;101860.66;7390125;19;1836;-34
2024/02/16 09:30:58;;;;;;;;;;;;;;;18.75;59.53;101865.66;7391246;19;1320;-44
2024/02/16 09:33:27;;;;;;;;;;;;;;;18.94;58.78;101865.28;7392662;19;1451;-39
2024/02/16 09:35:55;;;;;;;;;;;;;;;19.53;57.45;101869.97;7393025;19;1185;-40
2024/02/16 09:38:24;;;;;;;;;;;;;;;19.92;56.82;101875.22;7392458;19;1570;-39
2024/02/16 09:40:53;;;;;;;;;;;;;;;19.63;58.14;101854.91;7393161;19;1444;-39
2024/02/16 09:43:27;;;;;;;;;;;;;;;19.30;58.98;101862.72;7390947;19;1349;-35
2024/02/16 09:46:00;;;;;;;;;;;;;;;19.02;59.29;101862.00;7390684;19;1408;-35
2024/02/16 09:48:29;;;;;;;;;;;;;;;18.89;59.97;101886.16;7385197;19;1834;-35
2024/02/16 09:50:59;;;;;;;;;;;;;;;18.92;60.25;101869.00;7377147;19;1857;-34
2024/02/16 09:53:28;;;;;;;;;;;;;;;19.26;59.49;101879.06;7385669;19;1317;-34
2024/02/16 09:55:56;;;;;;;;;;;;;;;18.65;59.20;101873.47;7383119;19;1388;-35
2024/02/16 09:58:24;;;;;;;;;;;;;;;18.24;56.54;101874.50;7387544;19;1836;-33
2024/02/16 10:00:54;;;;;;;;;;;;;;;18.02;56.27;101875.06;7386119;19;1584;-34
2024/02/16 10:03:32;;;;;;;;;;;;;;;17.90;56.12;101865.16;7389152;19;1812;-39
2024/02/16 10:06:07;;;;;;;;;;;;;;;17.86;55.98;101858.31;7388622;19;1234;-43
2024/02/16 10:08:36;;;;;;;;;;;;;;;17.81;54.84;101871.97;7368649;19;2449;-40
2024/02/16 10:11:05;;;;;;;;;;;;;;;17.73;54.77;101860.91;7389710;19;1518;-41
2024/02/16 10:13:33;;;;;;;;;;;;;;;17.60;53.85;101854.63;7390270;19;1388;-36
2024/02/16 10:16:09;;;;;;;;;;;;;;;17.41;53.11;101853.16;7389225;19;1228;-39
2024/02/16 10:18:40;;;;;;;;;;;;;;;17.46;52.62;101847.50;7389396;19;1761;-35
2024/02/16 10:21:08;;;;;;;;;;;;;;;17.40;52.20;101839.88;7388095;19;1752;-35
2024/02/16 10:23:37;;;;;;;;;;;;;;;17.38;51.53;101841.78;7387023;19;1858;-35
2024/02/16 10:26:06;;;;;;;;;;;;;;;17.46;52.70;101847.50;7386015;19;1852;-35
2024/02/16 10:28:34;;;;;;;;;;;;;;;17.52;51.24;101843.56;7388489;19;1857;-40
2024/02/16 10:31:05;;;;;;;;;;;;;;;17.45;51.08;101854.69;7388480;19;1468;-40
2024/02/16 10:33:38;;;;;;;;;;;;;;;17.41;51.21;101839.78;7383015;19;1157;-35
2024/02/16 10:36:09;;;;;;;;;;;;;;;17.21;51.76;101834.84;7389368;19;1351;-34
2024/02/16 10:38:38;;;;;;;;;;;;;;;16.79;51.48;101823.19;7389665;19;1043;-40
2024/02/16 10:41:07;;;;;;;;;;;;;;;16.90;52.05;101826.94;7388945;19;2008;-41
2024/02/16 10:43:36;;;;;;;;;;;;;;;17.08;52.83;101819.59;7384974;19;2577;-36
2024/02/16 10:46:04;;;;;;;;;;;;;;;17.10;52.48;101812.31;7387802;19;1434;-35
2024/02/16 10:48:33;;;;;;;;;;;;;;;17.08;52.38;101814.25;7387172;19;1838;-35
2024/02/16 10:51:02;;;;;;;;;;;;;;;17.27;54.32;101807.75;7390020;19;1499;-35
2024/02/16 10:53:33;;;;;;;;;;;;;;;17.53;54.37;101802.50;7387904;19;1398;-35
2024/02/16 10:56:02;;;;;;;;;;;;;;;17.65;55.20;101796.34;7388853;19;1304;-36
2024/02/16 10:58:31;;;;;;;;;;;;;;;17.76;55.30;101801.84;7385576;19;1817;-40
2024/02/16 11:01:00;;;;;;;;;;;;;;;17.80;58.97;101800.66;7383602;19;1110;-35
2024/02/16 11:03:29;;;;;;;;;;;;;;;17.85;60.58;101803.94;7384888;19;1550;-35
2024/02/16 11:05:58;;;;;;;;;;;;;;;17.87;62.09;101788.63;7383441;19;1275;-39
2024/02/16 11:08:28;;;;;;;;;;;;;;;17.91;63.62;101791.13;7368541;19;1836;-35
2024/02/16 11:11:00;;;;;;;;;;;;;;;17.89;65.79;101799.25;7383700;19;1202;-35
2024/02/16 11:13:29;;;;;;;;;;;;;;;17.81;64.94;101782.81;7383470;19;1551;-35
2024/02/16 11:16:02;;;;;;;;;;;;;;;17.81;64.31;101783.66;7386291;19;1502;-36
2024/02/16 11:18:31;;;;;;;;;;;;;;;17.76;61.73;101768.88;7385453;19;1816;-35
2024/02/16 11:21:03;;;;;;;;;;;;;;;17.64;61.68;101789.28;7385976;19;1528;-35
2024/02/16 11:23:32;;;;;;;;;;;;;;;17.69;60.99;101784.50;7386065;19;1549;-35
2024/02/16 11:26:08;;;;;;;;;;;;;;;17.77;61.39;101778.63;7387690;19;1550;-35
2024/02/16 11:28:37;;;;;;;;;;;;;;;17.76;60.89;101793.81;7381964;19;1838;-36
2024/02/16 11:31:07;;;;;;;;;;;;;;;17.81;60.96;101791.69;7382732;19;1472;-40
2024/02/16 11:33:35;;;;;;;;;;;;;;;17.85;60.58;101774.50;7376122;19;1748;-39
2024/02/16 11:36:04;;;;;;;;;;;;;;;18.19;62.13;101766.84;7385534;19;1216;-40
2024/02/16 11:38:33;;;;;;;;;;;;;;;18.85;60.81;101766.75;7391515;19;1283;-39
2024/02/16 11:41:02;;;;;;;;;;;;;;;19.31;59.45;101766.06;7392579;19;1328;-40
2024/02/16 11:43:34;;;;;;;;;;;;;;;19.22;58.72;101764.94;7392405;19;1514;-40
2024/02/16 11:46:02;;;;;;;;;;;;;;;18.92;58.44;101772.50;7393357;19;1283;-40
2024/02/16 11:48:31;;;;;;;;;;;;;;;18.64;59.02;101775.31;7393301;19;1455;-36
2024/02/16 11:51:04;;;;;;;;;;;;;;;18.54;58.96;101758.16;7391521;19;1862;-35
2024/02/16 11:53:33;;;;;;;;;;;;;;;18.79;59.24;101753.75;7394626;19;1534;-36
2024/02/16 11:56:01;;;;;;;;;;;;;;;19.28;58.21;101767.16;7392054;19;1373;-35
2024/02/16 11:58:30;;;;;;;;;;;;;;;19.68;57.67;101764.19;7391349;19;1581;-35
2024/02/16 12:01:01;;;;;;;;;;;;;;;19.73;58.47;101758.50;7391442;19;1558;-39
2024/02/16 12:03:29;;;;;;;;;;;;;;;19.29;59.42;101738.50;7393186;19;1558;-34
2024/02/16 12:05:59;;;;;;;;;;;;;;;18.98;60.94;101756.88;7393260;19;1992;-40
2024/02/16 12:08:34;;;;;;;;;;;;;;;19.04;60.56;101758.25;7376101;19;1686;-41
2024/02/16 12:11:02;;;;;;;;;;;;;;;19.27;60.32;101754.69;7390509;19;1857;-39
2024/02/16 12:13:31;;;;;;;;;;;;;;;19.64;59.81;101754.66;7393272;19;1483;-40
2024/02/16 12:16:04;;;;;;;;;;;;;;;19.77;60.07;101753.75;7391025;19;1380;-39
2024/02/16 12:18:32;;;;;;;;;;;;;;;19.94;59.52;101753.31;7392943;19;1387;-36
2024/02/16 12:21:01;;;;;;;;;;;;;;;19.75;59.83;101756.53;7390193;19;1381;-40
2024/02/16 12:23:30;;;;;;;;;;;;;;;19.72;60.19;101766.69;7389877;19;1555;-39
2024/02/16 12:25:59;;;;;;;;;;;;;;;19.76;60.43;101769.00;7391423;19;1781;-36
2024/02/16 12:28:28;;;;;;;;;;;;;;;19.69;60.70;101751.63;7392664;19;1225;-40
2024/02/16 12:30:56;;;;;;;;;;;;;;;19.83;60.47;101747.91;7389156;19;1846;-41
2024/02/16 12:33:27;;;;;;;;;;;;;;;19.93;60.77;101743.56;7392217;19;1482;-42
2024/02/16 12:35:56;;;;;;;;;;;;;;;20.03;60.69;101746.38;7391478;19;1260;-41
2024/02/16 12:38:24;;;;;;;;;;;;;;;19.96;60.75;101747.84;7390842;19;1361;-40
2024/02/16 12:40:52;;;;;;;;;;;;;;;20.02;60.67;101753.59;7392604;19;1518;-39
2024/02/16 12:43:21;;;;;;;;;;;;;;;20.08;60.79;101746.91;7391864;19;1570;-40
2024/02/16 12:45:49;;;;;;;;;;;;;;;20.23;60.54;101737.66;7394082;19;1542;-40
2024/02/16 12:48:17;;;;;;;;;;;;;;;20.17;60.46;101751.53;7392024;19;1582;-35
2024/02/16 12:50:49;;;;;;;;;;;;;;;20.20;60.41;101728.97;7387907;19;1846;-36
2024/02/16 12:53:18;;;;;;;;;;;;;;;20.17;60.57;101748.84;7391070;19;1913;-35
2024/02/16 12:55:47;;;;;;;;;;;;;;;20.15;60.37;101752.63;7392686;19;1097;-36
2024/02/16 12:58:15;;;;;;;;;;;;;;;20.19;60.43;101755.00;7386056;19;1871;-37
2024/02/16 13:00:44;;;;;;;;;;;;;;;20.15;60.51;101740.06;7387864;19;1764;-37